Time;durP1;ratioP1;P1;durP2;ratioP2;P2;SDS_P1;SDS_P2;PMS_P1;PMS_P2;Temp;Humidity;BMP_temperature;BMP_pressure;BME280_temperature;BME280_humidity;BME280_pressure;Samples;Min_cycle;Max_cycle;Signal;HPM_P1;HPM_P2
2023/08/27 00:02:15;;;;;;;;;;;;;;;21.92;28.48;97757.19;4959108;29;959;-77
2023/08/27 00:04:42;;;;;;;;;;;;;;;22.01;28.10;97754.44;4941641;29;1268;-77
2023/08/27 00:07:08;;;;;;;;;;;;;;;22.17;27.96;97757.16;4926043;29;1139;-77
2023/08/27 00:09:33;;;;;;;;;;;;;;;22.24;27.90;97756.94;4941725;29;1907;-77
2023/08/27 00:11:59;;;;;;;;;;;;;;;22.12;28.41;97759.78;4941873;29;921;-78
2023/08/27 00:14:24;;;;;;;;;;;;;;;22.04;28.25;97759.22;4941466;29;935;-77
2023/08/27 00:16:50;;;;;;;;;;;;;;;22.03;28.17;97746.28;4958599;29;1134;-78
2023/08/27 00:19:16;;;;;;;;;;;;;;;21.93;28.69;97747.44;4925851;29;972;-76
2023/08/27 00:21:41;;;;;;;;;;;;;;;22.12;28.32;97743.56;4941296;29;896;-77
2023/08/27 00:24:07;;;;;;;;;;;;;;;22.14;28.26;97741.09;4958412;29;918;-78
2023/08/27 00:26:32;;;;;;;;;;;;;;;21.95;28.65;97744.91;4910098;29;1238;-78
2023/08/27 00:28:59;;;;;;;;;;;;;;;21.92;28.52;97745.84;4925366;29;1975;-77
2023/08/27 00:31:24;;;;;;;;;;;;;;;22.06;28.44;97745.38;4925742;29;1246;-76
2023/08/27 00:33:50;;;;;;;;;;;;;;;22.12;28.33;97742.78;4925559;29;978;-77
2023/08/27 00:36:15;;;;;;;;;;;;;;;21.94;28.51;97743.34;4925628;29;1275;-76
2023/08/27 00:38:41;;;;;;;;;;;;;;;21.83;28.62;97755.81;4958312;29;922;-77
2023/08/27 00:41:06;;;;;;;;;;;;;;;21.97;28.60;97748.91;4925272;29;1293;-79
2023/08/27 00:43:32;;;;;;;;;;;;;;;21.93;28.50;97747.44;4941095;29;954;-77
2023/08/27 00:45:57;;;;;;;;;;;;;;;21.98;28.27;97741.19;4925304;29;1181;-78
2023/08/27 00:48:23;;;;;;;;;;;;;;;22.12;28.33;97743.56;4920513;29;1903;-77
2023/08/27 00:50:48;;;;;;;;;;;;;;;21.97;28.23;97736.78;4917766;29;1199;-79
2023/08/27 00:53:14;;;;;;;;;;;;;;;21.90;28.50;97748.31;4901889;29;1210;-77
2023/08/27 00:55:40;;;;;;;;;;;;;;;21.85;28.37;97746.84;4901645;29;1142;-78
2023/08/27 00:58:05;;;;;;;;;;;;;;;21.73;28.89;97745.59;4901799;29;970;-78
2023/08/27 01:00:31;;;;;;;;;;;;;;;21.91;28.35;97741.41;4883097;29;1695;-77
2023/08/27 01:02:56;;;;;;;;;;;;;;;21.91;28.55;97741.41;4882830;29;1208;-77
2023/08/27 01:05:23;;;;;;;;;;;;;;;21.92;28.63;97745.84;4883098;29;1172;-78
2023/08/27 01:08:06;;;;;;;;;;;;;;;21.77;28.63;97734.97;4867466;29;1907;-77
2023/08/27 01:10:50;;;;;;;;;;;;;;;21.92;28.31;97737.34;4898408;29;1187;-77
2023/08/27 01:13:20;;;;;;;;;;;;;;;21.63;28.97;97741.06;4898294;29;1058;-77
2023/08/27 01:15:46;;;;;;;;;;;;;;;21.95;28.31;97730.75;4867453;29;1569;-76
2023/08/27 01:18:12;;;;;;;;;;;;;;;22.10;28.29;97740.38;4867318;29;1151;-78
2023/08/27 01:20:37;;;;;;;;;;;;;;;22.02;28.24;97750.34;4864287;29;1297;-77
2023/08/27 01:23:03;;;;;;;;;;;;;;;22.03;28.50;97740.63;4879677;29;1201;-77
2023/08/27 01:25:53;;;;;;;;;;;;;;;21.73;28.79;97745.59;4848574;29;1115;-77
2023/08/27 01:28:20;;;;;;;;;;;;;;;21.82;28.48;97753.44;4854399;29;1978;-77
2023/08/27 01:31:18;;;;;;;;;;;;;;;21.94;28.28;97755.47;4849485;29;961;-78
2023/08/27 01:33:45;;;;;;;;;;;;;;;21.92;28.46;97745.84;4827403;29;1179;-77
2023/08/27 01:36:10;;;;;;;;;;;;;;;21.97;28.40;97760.22;4827861;29;1196;-77
2023/08/27 01:38:36;;;;;;;;;;;;;;;22.14;28.30;97757.31;4824339;29;964;-77
2023/08/27 01:41:01;;;;;;;;;;;;;;;21.96;28.59;97749.34;4819095;29;1011;-77
2023/08/27 01:43:28;;;;;;;;;;;;;;;22.03;28.13;97747.09;4812066;29;1102;-77
2023/08/27 01:45:54;;;;;;;;;;;;;;;22.05;28.24;97743.78;4827518;29;1509;-77
2023/08/27 01:48:20;;;;;;;;;;;;;;;22.05;28.21;97743.78;4827381;29;1976;-77
2023/08/27 01:50:47;;;;;;;;;;;;;;;22.08;28.29;97743.69;4842334;29;1455;-78
2023/08/27 01:53:13;;;;;;;;;;;;;;;21.80;28.45;97739.69;4842494;29;1231;-77
2023/08/27 01:55:40;;;;;;;;;;;;;;;21.98;28.46;97739.16;4842355;29;1111;-77
2023/08/27 01:58:06;;;;;;;;;;;;;;;21.99;28.42;97743.56;4797034;29;1258;-77
2023/08/27 02:00:32;;;;;;;;;;;;;;;21.98;28.53;97749.69;4842469;29;1142;-77
2023/08/27 02:02:58;;;;;;;;;;;;;;;21.89;28.61;97746.75;4842301;29;1134;-77
2023/08/27 02:05:23;;;;;;;;;;;;;;;21.99;28.22;97737.91;4827387;29;1197;-77
2023/08/27 02:07:49;;;;;;;;;;;;;;;22.10;28.28;97746.03;4845347;29;1192;-77
2023/08/27 02:10:14;;;;;;;;;;;;;;;22.07;28.30;97741.28;4896498;29;1911;-76
2023/08/27 02:12:40;;;;;;;;;;;;;;;21.95;28.35;97739.25;4889351;29;1260;-77
2023/08/27 02:15:09;;;;;;;;;;;;;;;22.02;28.44;97747.50;4893694;29;1700;-77
2023/08/27 02:17:35;;;;;;;;;;;;;;;21.95;28.48;97744.91;4904539;29;1400;-77
2023/08/27 02:20:02;;;;;;;;;;;;;;;21.87;28.37;97737.91;4904578;29;1068;-77
2023/08/27 02:22:28;;;;;;;;;;;;;;;21.91;28.30;97744.25;4889138;29;1141;-77
2023/08/27 02:24:53;;;;;;;;;;;;;;;22.02;28.14;97739.00;4904442;29;1050;-77
2023/08/27 02:27:19;;;;;;;;;;;;;;;21.72;28.59;97743.22;4889028;29;1102;-77
2023/08/27 02:29:44;;;;;;;;;;;;;;;22.10;27.96;97740.38;4882560;29;1976;-77
2023/08/27 02:32:10;;;;;;;;;;;;;;;22.04;28.35;97753.53;4882656;29;1086;-77
2023/08/27 02:34:35;;;;;;;;;;;;;;;21.97;28.41;97753.78;4867186;29;996;-77
2023/08/27 02:37:01;;;;;;;;;;;;;;;21.76;28.39;97756.03;4882656;29;1133;-77
2023/08/27 02:39:26;;;;;;;;;;;;;;;21.74;28.65;97755.69;4866931;29;1098;-77
2023/08/27 02:41:52;;;;;;;;;;;;;;;21.67;28.91;97758.75;4882403;29;1208;-78
2023/08/27 02:44:17;;;;;;;;;;;;;;;21.72;28.68;97755.34;4882302;29;1202;-77
2023/08/27 02:46:43;;;;;;;;;;;;;;;21.92;28.13;97760.00;4881979;29;1391;-77
2023/08/27 02:49:08;;;;;;;;;;;;;;;21.93;28.32;97759.56;4866393;29;1902;-78
2023/08/27 02:51:34;;;;;;;;;;;;;;;21.80;28.63;97759.53;4866929;29;935;-77
2023/08/27 02:53:59;;;;;;;;;;;;;;;21.74;28.55;97758.50;4864097;29;1287;-77
2023/08/27 02:56:26;;;;;;;;;;;;;;;22.12;28.04;97749.25;4864295;29;1077;-77
2023/08/27 02:58:52;;;;;;;;;;;;;;;22.07;28.08;97746.94;4848492;29;1260;-77
2023/08/27 03:01:20;;;;;;;;;;;;;;;21.84;28.31;97750.94;4845069;29;1166;-77
2023/08/27 03:03:47;;;;;;;;;;;;;;;21.95;28.32;97750.59;4829649;29;1158;-77
2023/08/27 03:06:13;;;;;;;;;;;;;;;21.92;28.29;97749.47;4827853;29;1143;-77
2023/08/27 03:08:38;;;;;;;;;;;;;;;22.00;28.05;97750.03;4811370;29;1899;-77
2023/08/27 03:11:04;;;;;;;;;;;;;;;21.82;28.52;97762.72;4826654;29;1143;-77
2023/08/27 03:13:30;;;;;;;;;;;;;;;21.85;28.39;97758.19;4841452;29;1204;-77
2023/08/27 03:15:55;;;;;;;;;;;;;;;22.18;27.88;97753.09;4841990;29;915;-78
2023/08/27 03:18:21;;;;;;;;;;;;;;;21.82;28.55;97759.88;4856855;29;1209;-77
2023/08/27 03:20:47;;;;;;;;;;;;;;;21.66;28.38;97762.81;4841244;29;1156;-78
2023/08/27 03:23:12;;;;;;;;;;;;;;;21.68;28.34;97753.88;4841325;29;905;-77
2023/08/27 03:25:38;;;;;;;;;;;;;;;21.91;28.27;97749.91;4859192;29;936;-77
2023/08/27 03:28:04;;;;;;;;;;;;;;;21.74;28.28;97752.84;4863053;29;1980;-77
2023/08/27 03:30:30;;;;;;;;;;;;;;;21.93;28.18;97748.22;4863513;29;1168;-77
2023/08/27 03:32:55;;;;;;;;;;;;;;;21.80;28.04;97753.88;4891535;29;1063;-77
2023/08/27 03:35:21;;;;;;;;;;;;;;;21.81;28.38;97752.66;4918623;29;1300;-78
2023/08/27 03:37:46;;;;;;;;;;;;;;;21.97;27.85;97748.09;4891933;29;1168;-77
2023/08/27 03:40:12;;;;;;;;;;;;;;;21.79;28.43;97751.50;4940360;29;859;-78
2023/08/27 03:42:37;;;;;;;;;;;;;;;21.64;28.57;97753.97;4923503;29;954;-77
2023/08/27 03:45:03;;;;;;;;;;;;;;;21.69;28.71;97753.41;4923144;29;1038;-77
2023/08/27 03:47:29;;;;;;;;;;;;;;;21.98;28.13;97749.69;4878120;29;1373;-77
2023/08/27 03:49:54;;;;;;;;;;;;;;;21.90;28.53;97748.31;4884536;29;1980;-77
2023/08/27 03:52:20;;;;;;;;;;;;;;;21.86;28.36;97754.09;4884486;29;1159;-76
2023/08/27 03:54:46;;;;;;;;;;;;;;;21.63;28.77;97752.38;4884311;29;1227;-77
2023/08/27 03:57:11;;;;;;;;;;;;;;;21.78;28.71;97752.75;4884294;29;1317;-77
2023/08/27 03:59:38;;;;;;;;;;;;;;;21.94;28.38;97746.19;4900302;29;1417;-78
2023/08/27 04:02:04;;;;;;;;;;;;;;;22.06;28.41;97734.03;4900214;29;1036;-78
2023/08/27 04:04:30;;;;;;;;;;;;;;;21.84;28.49;97736.75;4884353;29;1107;-77
2023/08/27 04:06:55;;;;;;;;;;;;;;;21.96;28.39;97733.13;4884119;29;1454;-77
2023/08/27 04:09:21;;;;;;;;;;;;;;;21.80;28.64;97739.69;4899604;29;1899;-77
2023/08/27 04:11:46;;;;;;;;;;;;;;;21.83;28.86;97732.34;4868718;29;1075;-84
2023/08/27 04:14:12;;;;;;;;;;;;;;;21.98;28.67;97732.69;4899781;29;1193;-77
2023/08/27 04:16:37;;;;;;;;;;;;;;;21.94;28.53;97737.69;4862478;29;1271;-77
2023/08/27 04:19:03;;;;;;;;;;;;;;;22.10;28.35;97734.72;4879201;29;1150;-77
2023/08/27 04:21:29;;;;;;;;;;;;;;;22.06;28.17;97737.66;4865072;29;1186;-76
2023/08/27 04:23:55;;;;;;;;;;;;;;;21.81;28.72;97746.97;4850008;29;1303;-77
2023/08/27 04:26:21;;;;;;;;;;;;;;;21.90;28.70;97739.81;4865376;29;1517;-77
2023/08/27 04:28:47;;;;;;;;;;;;;;;22.24;27.94;97739.94;4864501;29;1908;-77
2023/08/27 04:31:16;;;;;;;;;;;;;;;21.78;28.61;97745.03;4835448;29;1509;-77
2023/08/27 04:33:42;;;;;;;;;;;;;;;21.90;28.68;97739.81;4864910;29;1025;-77
2023/08/27 04:36:07;;;;;;;;;;;;;;;21.69;29.07;97739.25;4834674;29;1127;-77
2023/08/27 04:38:33;;;;;;;;;;;;;;;21.84;28.48;97734.72;4865016;29;1307;-77
2023/08/27 04:41:00;;;;;;;;;;;;;;;21.91;28.46;97732.91;4880500;29;962;-77
2023/08/27 04:43:25;;;;;;;;;;;;;;;21.97;28.37;97736.78;4865385;29;1023;-77
2023/08/27 04:45:52;;;;;;;;;;;;;;;21.91;28.66;97732.91;4849507;29;1197;-77
2023/08/27 04:48:18;;;;;;;;;;;;;;;21.92;28.58;97731.69;4849745;29;1903;-77
2023/08/27 04:50:45;;;;;;;;;;;;;;;21.93;28.34;97744.59;4865405;29;1125;-77
2023/08/27 04:53:10;;;;;;;;;;;;;;;22.21;28.22;97740.84;4872444;29;1217;-77
2023/08/27 04:55:36;;;;;;;;;;;;;;;22.00;28.22;97741.53;4901836;29;1205;-78
2023/08/27 04:58:04;;;;;;;;;;;;;;;21.82;28.56;97737.22;4904633;29;1184;-77
2023/08/27 05:00:29;;;;;;;;;;;;;;;21.92;28.41;97740.19;4936984;29;960;-77
2023/08/27 05:02:55;;;;;;;;;;;;;;;21.97;28.54;97731.13;4936702;29;1109;-77
2023/08/27 05:05:20;;;;;;;;;;;;;;;21.87;28.87;97738.72;4920979;29;1169;-77
2023/08/27 05:07:47;;;;;;;;;;;;;;;21.93;28.51;97736.88;4936815;29;1093;-77
2023/08/27 05:10:12;;;;;;;;;;;;;;;21.85;28.55;97736.31;4936544;29;1918;-77
2023/08/27 05:12:38;;;;;;;;;;;;;;;21.78;28.80;97741.41;4905275;29;1098;-77
2023/08/27 05:15:06;;;;;;;;;;;;;;;21.72;29.03;97738.34;4905222;29;1154;-76
2023/08/27 05:17:32;;;;;;;;;;;;;;;22.14;28.55;97734.63;4920890;29;1194;-77
2023/08/27 05:19:57;;;;;;;;;;;;;;;22.05;28.80;97740.94;4905213;29;1335;-77
2023/08/27 05:22:23;;;;;;;;;;;;;;;22.16;28.39;97737.78;4936784;29;1750;-78
2023/08/27 05:24:49;;;;;;;;;;;;;;;22.11;28.59;97747.66;4936531;29;1248;-77
2023/08/27 05:27:15;;;;;;;;;;;;;;;21.93;28.88;97747.44;4924928;29;945;-77
2023/08/27 05:29:40;;;;;;;;;;;;;;;22.07;28.55;97746.94;4925039;29;1918;-77
2023/08/27 05:32:06;;;;;;;;;;;;;;;22.17;28.84;97750.72;4924885;29;1371;-76
2023/08/27 05:34:31;;;;;;;;;;;;;;;22.02;29.06;97756.00;4924995;29;1312;-77
2023/08/27 05:36:57;;;;;;;;;;;;;;;22.24;28.78;97756.94;4941011;29;892;-78
2023/08/27 05:39:23;;;;;;;;;;;;;;;22.00;29.02;97758.53;4940394;29;985;-77
2023/08/27 05:41:49;;;;;;;;;;;;;;;22.03;28.97;97757.63;4928355;29;1183;-77
2023/08/27 05:44:14;;;;;;;;;;;;;;;22.06;29.22;97762.38;4944587;29;1347;-77
2023/08/27 05:46:40;;;;;;;;;;;;;;;22.23;29.03;97755.38;4938248;29;1168;-77
2023/08/27 05:49:05;;;;;;;;;;;;;;;22.03;29.04;97761.25;4909410;29;1910;-77
2023/08/27 05:51:32;;;;;;;;;;;;;;;22.22;29.02;97758.63;4909933;29;1131;-77
2023/08/27 05:53:58;;;;;;;;;;;;;;;22.05;29.30;97755.91;4909816;29;1134;-77
2023/08/27 05:56:26;;;;;;;;;;;;;;;22.04;29.10;97760.00;4909772;29;1079;-78
2023/08/27 05:58:53;;;;;;;;;;;;;;;22.01;29.30;97772.22;4910552;29;1407;-76
2023/08/27 06:01:18;;;;;;;;;;;;;;;21.87;29.43;97764.19;4909548;29;1149;-77
2023/08/27 06:03:44;;;;;;;;;;;;;;;22.07;29.47;97761.13;4909289;29;1142;-77
2023/08/27 06:06:10;;;;;;;;;;;;;;;22.06;29.10;97753.88;4909571;29;1577;-77
2023/08/27 06:08:36;;;;;;;;;;;;;;;22.05;29.50;97755.91;4893724;29;1907;-78
2023/08/27 06:11:04;;;;;;;;;;;;;;;22.22;28.90;97753.75;4892878;29;1147;-77
2023/08/27 06:13:30;;;;;;;;;;;;;;;21.93;29.56;97753.09;4909389;29;1138;-77
2023/08/27 06:15:56;;;;;;;;;;;;;;;21.93;29.73;97758.75;4925009;29;953;-78
2023/08/27 06:18:22;;;;;;;;;;;;;;;21.93;29.77;97748.22;4925174;29;1067;-78
2023/08/27 06:20:48;;;;;;;;;;;;;;;22.00;29.43;97755.69;4925081;29;1110;-78
2023/08/27 06:23:14;;;;;;;;;;;;;;;22.09;29.16;97761.47;4886026;29;1433;-78
2023/08/27 06:25:40;;;;;;;;;;;;;;;22.17;29.35;97759.22;4870716;29;1318;-78
2023/08/27 06:28:06;;;;;;;;;;;;;;;22.16;29.12;97766.91;4864117;29;1910;-77
2023/08/27 06:30:32;;;;;;;;;;;;;;;21.87;29.39;97760.56;4864077;29;1182;-77
2023/08/27 06:33:01;;;;;;;;;;;;;;;22.03;29.46;97757.63;4879546;29;1168;-77
2023/08/27 06:35:26;;;;;;;;;;;;;;;22.24;29.03;97750.50;4864112;29;995;-77
2023/08/27 06:37:52;;;;;;;;;;;;;;;22.17;29.01;97762.84;4864042;29;1146;-77
2023/08/27 06:40:17;;;;;;;;;;;;;;;21.90;29.65;97760.44;4864276;29;1114;-77
2023/08/27 06:42:43;;;;;;;;;;;;;;;22.23;28.77;97761.03;4879354;29;1247;-77
2023/08/27 06:45:08;;;;;;;;;;;;;;;21.99;29.31;97754.09;4863785;29;1294;-77
2023/08/27 06:47:34;;;;;;;;;;;;;;;22.14;28.86;97760.13;4861643;29;1225;-78
2023/08/27 06:49:59;;;;;;;;;;;;;;;22.06;29.28;97765.19;4897718;29;1972;-77
2023/08/27 06:52:25;;;;;;;;;;;;;;;22.10;29.03;97765.88;4913190;29;1165;-77
2023/08/27 06:54:51;;;;;;;;;;;;;;;21.88;29.22;97767.81;4926630;29;985;-77
2023/08/27 06:57:16;;;;;;;;;;;;;;;21.90;29.48;97777.44;4920219;29;1082;-77
2023/08/27 06:59:42;;;;;;;;;;;;;;;21.99;29.11;97768.28;4911387;29;1425;-77
2023/08/27 07:02:09;;;;;;;;;;;;;;;21.91;29.48;97779.03;4907647;29;1142;-78
2023/08/27 07:04:35;;;;;;;;;;;;;;;21.94;29.15;97771.66;4907114;29;1162;-77
2023/08/27 07:07:00;;;;;;;;;;;;;;;21.91;29.16;97778.22;4923264;29;1166;-78
2023/08/27 07:09:27;;;;;;;;;;;;;;;21.97;29.22;97771.56;4923106;29;1902;-77
2023/08/27 07:11:53;;;;;;;;;;;;;;;22.08;29.03;97771.22;4881680;29;917;-77
2023/08/27 07:14:18;;;;;;;;;;;;;;;22.26;28.82;97777.13;4866617;29;1163;-76
2023/08/27 07:16:44;;;;;;;;;;;;;;;22.07;28.90;97770.44;4881967;29;1199;-77
2023/08/27 07:19:09;;;;;;;;;;;;;;;22.09;29.10;97767.13;4866293;29;972;-77
2023/08/27 07:21:35;;;;;;;;;;;;;;;22.19;28.88;97766.03;4880138;29;1369;-77
2023/08/27 07:24:01;;;;;;;;;;;;;;;22.14;28.85;97769.44;4869669;29;1341;-77
2023/08/27 07:26:27;;;;;;;;;;;;;;;22.19;28.95;97766.03;4881846;29;1075;-76
2023/08/27 07:28:52;;;;;;;;;;;;;;;21.93;29.49;97764.41;4866061;29;1915;-77
2023/08/27 07:31:18;;;;;;;;;;;;;;;22.27;28.74;97760.91;4866300;29;1340;-77
2023/08/27 07:33:43;;;;;;;;;;;;;;;22.23;29.01;97761.03;4866239;29;1186;-77
2023/08/27 07:36:09;;;;;;;;;;;;;;;22.33;28.61;97759.91;4881664;29;1053;-77
2023/08/27 07:38:38;;;;;;;;;;;;;;;21.74;29.60;97769.84;4866120;29;1146;-77
2023/08/27 07:41:04;;;;;;;;;;;;;;;21.89;29.61;97758.06;4881473;29;960;-77
2023/08/27 07:43:29;;;;;;;;;;;;;;;21.98;29.38;97750.47;4894293;29;1103;-76
2023/08/27 07:45:55;;;;;;;;;;;;;;;22.14;29.32;97751.63;4903194;29;1332;-77
2023/08/27 07:48:21;;;;;;;;;;;;;;;22.28;28.73;97748.34;4903175;29;2056;-78
2023/08/27 07:50:47;;;;;;;;;;;;;;;22.05;29.20;97752.28;4903163;29;1280;-76
2023/08/27 07:53:13;;;;;;;;;;;;;;;22.12;29.42;97754.91;4903048;29;931;-77
2023/08/27 07:55:39;;;;;;;;;;;;;;;22.03;29.31;97758.41;4903175;29;1097;-77
2023/08/27 07:58:05;;;;;;;;;;;;;;;22.12;29.35;97754.91;4932930;29;1341;-77
2023/08/27 08:00:30;;;;;;;;;;;;;;;22.14;29.11;97758.09;4941805;29;1205;-77
2023/08/27 08:02:57;;;;;;;;;;;;;;;22.31;28.86;97758.75;4894191;28;1130;-77
2023/08/27 08:05:23;;;;;;;;;;;;;;;22.10;29.36;97765.88;4925335;29;1219;-77
2023/08/27 08:07:48;;;;;;;;;;;;;;;22.39;28.79;97762.16;4941651;29;1249;-77
2023/08/27 08:10:14;;;;;;;;;;;;;;;22.09;29.36;97756.59;4941458;29;1911;-77
2023/08/27 08:12:39;;;;;;;;;;;;;;;21.98;29.47;97749.69;4941804;29;934;-77
2023/08/27 08:15:05;;;;;;;;;;;;;;;22.14;29.12;97752.44;4941648;29;1322;-78
2023/08/27 08:17:30;;;;;;;;;;;;;;;21.80;29.79;97762.34;4958738;29;906;-77
2023/08/27 08:19:56;;;;;;;;;;;;;;;22.07;29.44;97747.75;4958979;29;887;-76
2023/08/27 08:22:21;;;;;;;;;;;;;;;22.03;29.18;97749.91;4959082;29;895;-77
2023/08/27 08:24:53;;;;;;;;;;;;;;;22.24;29.14;97751.28;5093728;27;1255;-78
2023/08/27 08:27:18;;;;;;;;;;;;;;;22.16;29.40;97744.25;5092105;28;887;-77
2023/08/27 08:29:44;;;;;;;;;;;;;;;21.99;29.58;97756.94;5109457;28;920;-77
2023/08/27 08:32:09;;;;;;;;;;;;;;;22.01;29.63;97748.78;5109465;28;1309;-77
2023/08/27 08:34:35;;;;;;;;;;;;;;;22.41;29.08;97748.31;5092241;28;1093;-78
2023/08/27 08:37:01;;;;;;;;;;;;;;;22.06;29.41;97746.16;5092435;28;1309;-78
2023/08/27 08:39:26;;;;;;;;;;;;;;;22.18;29.49;97753.09;5125560;28;956;-78
2023/08/27 08:41:54;;;;;;;;;;;;;;;21.88;29.52;97750.81;5122513;27;1205;-78
2023/08/27 08:44:27;;;;;;;;;;;;;;;22.19;29.25;97754.69;5119747;27;1905;-78
2023/08/27 08:46:52;;;;;;;;;;;;;;;22.20;29.13;97744.16;5125808;28;916;-77
2023/08/27 08:49:19;;;;;;;;;;;;;;;22.26;29.22;97754.44;5092970;28;902;-78
2023/08/27 08:51:44;;;;;;;;;;;;;;;22.41;28.88;97742.63;5125941;28;944;-78
2023/08/27 08:54:11;;;;;;;;;;;;;;;22.18;29.27;97736.09;5092796;28;975;-78
2023/08/27 08:56:37;;;;;;;;;;;;;;;22.18;29.12;97733.28;5126107;28;834;-77
2023/08/27 08:59:03;;;;;;;;;;;;;;;21.99;29.72;97742.78;5108955;28;909;-77
2023/08/27 09:01:29;;;;;;;;;;;;;;;22.07;29.47;97749.78;5125843;28;948;-77
2023/08/27 09:03:54;;;;;;;;;;;;;;;22.08;29.57;97748.56;5126080;28;1988;-78
2023/08/27 09:06:20;;;;;;;;;;;;;;;22.15;29.51;97753.22;5108706;28;1543;-78
2023/08/27 09:08:46;;;;;;;;;;;;;;;22.18;29.54;97752.31;5125603;27;938;-78
2023/08/27 09:11:11;;;;;;;;;;;;;;;22.07;29.30;97749.78;5108723;28;1378;-78
2023/08/27 09:13:37;;;;;;;;;;;;;;;21.95;29.78;97750.59;5108650;28;1239;-78
2023/08/27 09:16:03;;;;;;;;;;;;;;;21.92;29.82;97757.19;5091639;28;1032;-78
2023/08/27 09:18:28;;;;;;;;;;;;;;;22.22;29.45;97752.97;5091469;28;1011;-78
2023/08/27 09:20:54;;;;;;;;;;;;;;;22.38;29.20;97737.88;5108504;28;1081;-78
2023/08/27 09:23:19;;;;;;;;;;;;;;;22.27;29.40;97741.84;5092297;28;1969;-78
2023/08/27 09:25:45;;;;;;;;;;;;;;;22.07;29.62;97747.75;5120984;28;1279;-78
2023/08/27 09:28:10;;;;;;;;;;;;;;;22.29;29.32;97736.53;5125232;27;875;-77
2023/08/27 09:30:36;;;;;;;;;;;;;;;22.27;29.40;97732.56;5091151;28;1169;-78
2023/08/27 09:33:03;;;;;;;;;;;;;;;22.46;29.09;97740.00;5125437;28;920;-78
2023/08/27 09:35:38;;;;;;;;;;;;;;;22.18;29.42;97736.09;5081897;28;964;-77
2023/08/27 09:38:04;;;;;;;;;;;;;;;22.31;29.26;97738.91;5077255;28;1110;-77
2023/08/27 09:40:29;;;;;;;;;;;;;;;22.23;29.22;97743.25;5094320;28;861;-78
2023/08/27 09:43:04;;;;;;;;;;;;;;;22.21;29.35;97746.50;5111247;28;1983;-78
2023/08/27 09:45:30;;;;;;;;;;;;;;;21.96;29.86;97735.16;5093947;28;1118;-78
2023/08/27 09:47:56;;;;;;;;;;;;;;;22.33;29.18;97742.88;5110849;28;999;-78
2023/08/27 09:50:21;;;;;;;;;;;;;;;22.26;29.40;97751.59;5111230;28;898;-78
2023/08/27 09:52:48;;;;;;;;;;;;;;;22.44;28.89;97748.19;5111394;28;957;-78
2023/08/27 09:55:14;;;;;;;;;;;;;;;22.24;29.40;97745.63;5116652;28;982;-77
2023/08/27 09:57:39;;;;;;;;;;;;;;;22.21;29.19;97735.19;5082793;28;1236;-77
2023/08/27 10:00:08;;;;;;;;;;;;;;;22.05;29.52;97736.06;5116544;28;952;-77
2023/08/27 10:02:39;;;;;;;;;;;;;;;22.07;29.68;97744.13;5075951;28;1971;-78
2023/08/27 10:05:07;;;;;;;;;;;;;;;22.30;29.28;97748.66;5059152;28;1363;-78
2023/08/27 10:07:33;;;;;;;;;;;;;;;22.32;29.12;97746.16;5059033;28;923;-78
2023/08/27 10:09:59;;;;;;;;;;;;;;;22.29;29.19;97747.88;5075722;28;927;-78
2023/08/27 10:12:24;;;;;;;;;;;;;;;22.28;29.13;97748.34;5076323;28;987;-78
2023/08/27 10:14:50;;;;;;;;;;;;;;;22.17;29.28;97739.38;5059544;28;1064;-77
2023/08/27 10:17:16;;;;;;;;;;;;;;;21.99;29.97;97740.72;5045099;28;2139;-78
2023/08/27 10:19:41;;;;;;;;;;;;;;;22.18;29.49;97746.66;5039090;28;977;-78
2023/08/27 10:22:07;;;;;;;;;;;;;;;22.06;29.65;97739.69;5073355;28;1049;-78
2023/08/27 10:24:33;;;;;;;;;;;;;;;22.07;29.60;97735.63;5041909;28;1906;-78
2023/08/27 10:26:59;;;;;;;;;;;;;;;22.40;29.23;97719.16;5042438;28;1063;-78
2023/08/27 10:29:25;;;;;;;;;;;;;;;22.31;29.45;97739.69;5072498;28;944;-78
2023/08/27 10:31:51;;;;;;;;;;;;;;;22.35;29.27;97733.91;5058308;28;946;-78
2023/08/27 10:34:17;;;;;;;;;;;;;;;22.16;29.50;97735.75;5091283;28;985;-78
2023/08/27 10:36:43;;;;;;;;;;;;;;;22.22;29.14;97728.25;5098929;28;933;-78
2023/08/27 10:39:08;;;;;;;;;;;;;;;22.32;28.98;97735.59;5081914;28;1115;-78
2023/08/27 10:41:34;;;;;;;;;;;;;;;22.02;29.51;97727.69;5116203;28;1056;-78
2023/08/27 10:44:00;;;;;;;;;;;;;;;21.97;29.72;97726.25;5116094;28;1906;-78
2023/08/27 10:46:25;;;;;;;;;;;;;;;22.12;29.62;97734.28;5114984;28;933;-78
2023/08/27 10:48:51;;;;;;;;;;;;;;;22.17;29.53;97728.03;5098836;28;980;-78
2023/08/27 10:51:18;;;;;;;;;;;;;;;22.33;29.31;97728.72;5098833;28;932;-77
2023/08/27 10:54:05;;;;;;;;;;;;;;;22.38;29.24;97723.69;5064977;28;1235;-78
2023/08/27 10:56:31;;;;;;;;;;;;;;;22.30;29.22;97720.31;5115428;28;943;-78
2023/08/27 10:59:00;;;;;;;;;;;;;;;22.18;29.44;97724.78;5115256;28;1037;-78
2023/08/27 11:01:25;;;;;;;;;;;;;;;22.19;29.30;97725.56;5081747;28;1256;-77
2023/08/27 11:03:57;;;;;;;;;;;;;;;22.18;29.25;97724.78;5077277;28;1897;-77
2023/08/27 11:06:33;;;;;;;;;;;;;;;22.36;29.07;97719.28;5076943;28;897;-78
2023/08/27 11:08:59;;;;;;;;;;;;;;;22.26;29.29;97720.44;5075516;28;954;-78
2023/08/27 11:11:25;;;;;;;;;;;;;;;22.27;29.50;97710.69;5075884;28;1058;-78
2023/08/27 11:14:00;;;;;;;;;;;;;;;22.28;29.21;97712.28;5091324;28;1216;-78
2023/08/27 11:16:26;;;;;;;;;;;;;;;22.02;29.75;97707.84;5025241;28;1110;-78
2023/08/27 11:18:52;;;;;;;;;;;;;;;22.28;29.28;97715.13;5055022;28;1221;-78
2023/08/27 11:21:21;;;;;;;;;;;;;;;22.47;29.08;97701.09;5057759;28;1036;-78
2023/08/27 11:24:05;;;;;;;;;;;;;;;22.19;29.31;97703.69;5074183;28;1910;-78
2023/08/27 11:26:30;;;;;;;;;;;;;;;22.28;29.42;97700.94;5074220;28;995;-78
2023/08/27 11:28:56;;;;;;;;;;;;;;;22.18;29.27;97690.75;5057788;28;1017;-77
2023/08/27 11:31:22;;;;;;;;;;;;;;;22.10;29.45;97687.38;5024560;28;1181;-78
2023/08/27 11:33:47;;;;;;;;;;;;;;;22.26;29.46;97697.75;5057554;28;901;-78
2023/08/27 11:36:12;;;;;;;;;;;;;;;22.38;29.08;97692.50;5057671;28;1062;-78
2023/08/27 11:38:38;;;;;;;;;;;;;;;22.36;29.09;97688.09;5074159;28;956;-78
2023/08/27 11:41:04;;;;;;;;;;;;;;;22.43;28.91;97695.56;5037267;28;1271;-78
2023/08/27 11:43:29;;;;;;;;;;;;;;;22.29;28.92;97674.19;5037432;28;1985;-77
2023/08/27 11:45:56;;;;;;;;;;;;;;;22.18;29.50;97685.09;5057237;28;1126;-78
2023/08/27 11:48:22;;;;;;;;;;;;;;;22.19;29.56;97692.34;5057404;28;1090;-78
2023/08/27 11:50:47;;;;;;;;;;;;;;;22.15;29.57;97680.34;5074061;28;915;-78
2023/08/27 11:53:13;;;;;;;;;;;;;;;22.13;29.48;97682.06;5057070;28;1153;-78
2023/08/27 11:55:39;;;;;;;;;;;;;;;22.14;29.64;97667.41;5056927;28;1065;-78
2023/08/27 11:58:06;;;;;;;;;;;;;;;22.39;29.01;97666.56;5040623;28;997;-78
2023/08/27 12:00:32;;;;;;;;;;;;;;;22.13;29.63;97677.19;5033630;28;1148;-78
2023/08/27 12:02:58;;;;;;;;;;;;;;;22.09;29.29;97670.81;5033872;28;1902;-78
2023/08/27 12:05:27;;;;;;;;;;;;;;;22.06;29.54;97671.69;5017463;28;1158;-78
2023/08/27 12:07:52;;;;;;;;;;;;;;;22.23;29.30;97670.34;5016832;28;1252;-78
2023/08/27 12:10:18;;;;;;;;;;;;;;;22.22;29.12;97662.28;5034005;28;1223;-78
2023/08/27 12:12:46;;;;;;;;;;;;;;;22.34;29.06;97659.44;5032658;28;1119;-78
2023/08/27 12:15:12;;;;;;;;;;;;;;;22.46;28.78;97654.97;5020792;28;1267;-78
2023/08/27 12:17:38;;;;;;;;;;;;;;;22.49;28.88;97664.59;5037066;28;1004;-78
2023/08/27 12:20:05;;;;;;;;;;;;;;;22.15;29.51;97657.66;5020708;28;1033;-78
2023/08/27 12:22:41;;;;;;;;;;;;;;;22.10;29.37;97649.72;5036883;28;1316;-78
2023/08/27 12:25:07;;;;;;;;;;;;;;;21.84;30.14;97649.75;5036712;28;974;-78
2023/08/27 12:27:32;;;;;;;;;;;;;;;21.87;30.20;97659.41;5053671;28;897;-77
2023/08/27 12:29:58;;;;;;;;;;;;;;;22.32;29.40;97650.56;5020404;28;1137;-78
2023/08/27 12:32:25;;;;;;;;;;;;;;;22.10;29.66;97649.72;5052377;28;896;-78
2023/08/27 12:34:50;;;;;;;;;;;;;;;22.32;29.48;97638.44;5075570;28;1003;-77
2023/08/27 12:37:17;;;;;;;;;;;;;;;22.21;29.55;97643.69;5074819;28;890;-78
2023/08/27 12:39:42;;;;;;;;;;;;;;;22.32;29.24;97642.06;5074981;28;1167;-78
2023/08/27 12:42:08;;;;;;;;;;;;;;;22.28;29.40;97644.25;5039648;28;967;-77
2023/08/27 12:44:34;;;;;;;;;;;;;;;22.29;29.03;97634.50;5073474;28;1922;-78
2023/08/27 12:46:59;;;;;;;;;;;;;;;22.24;29.50;97637.91;5073590;28;1160;-78
2023/08/27 12:49:25;;;;;;;;;;;;;;;22.22;29.19;97633.94;5073510;28;1016;-78
2023/08/27 12:51:51;;;;;;;;;;;;;;;22.31;29.26;97640.50;5090237;28;911;-78
2023/08/27 12:54:17;;;;;;;;;;;;;;;22.13;29.78;97631.06;5073368;28;970;-78
2023/08/27 12:56:42;;;;;;;;;;;;;;;22.39;29.06;97643.09;5090135;28;916;-78